sensor_id;sensor_type;location;lat;lon;timestamp;pressure;altitude;pressure_sealevel;temperature;humidity
8334;BME280;4204;43.004;23.052;2024-03-23T00:55:50;93889.69;;;-1.15;75.28
8334;BME280;4204;43.004;23.052;2024-03-23T00:58:15;93885.94;;;-1.40;76.43
8334;BME280;4204;43.004;23.052;2024-03-23T01:00:41;93863.09;;;-1.60;77.78
8334;BME280;4204;43.004;23.052;2024-03-23T01:03:06;93875.03;;;-1.41;77.40
8334;BME280;4204;43.004;23.052;2024-03-23T01:05:31;93875.28;;;-1.34;77.21
8334;BME280;4204;43.004;23.052;2024-03-23T01:07:57;93885.16;;;-1.21;76.58
8334;BME280;4204;43.004;23.052;2024-03-23T01:10:22;93880.66;;;-1.08;76.51
8334;BME280;4204;43.004;23.052;2024-03-23T01:12:48;93891.03;;;-1.11;75.96
8334;BME280;4204;43.004;23.052;2024-03-23T01:15:13;93877.31;;;-1.28;76.44
8334;BME280;4204;43.004;23.052;2024-03-23T01:17:38;93879.94;;;-1.39;77.37
8334;BME280;4204;43.004;23.052;2024-03-23T01:20:04;93872.22;;;-1.38;77.42
8334;BME280;4204;43.004;23.052;2024-03-23T01:22:31;93860.66;;;-1.31;76.92
8334;BME280;4204;43.004;23.052;2024-03-23T01:24:57;93875.31;;;-1.15;76.27
8334;BME280;4204;43.004;23.052;2024-03-23T01:27:22;93881.84;;;-1.03;74.95
8334;BME280;4204;43.004;23.052;2024-03-23T01:29:48;93855.50;;;-1.19;75.23
8334;BME280;4204;43.004;23.052;2024-03-23T01:32:13;93884.00;;;-0.98;75.02
8334;BME280;4204;43.004;23.052;2024-03-23T01:34:39;93886.53;;;-0.88;74.26
8334;BME280;4204;43.004;23.052;2024-03-23T01:37:04;93867.34;;;-0.91;74.20
8334;BME280;4204;43.004;23.052;2024-03-23T01:39:30;93877.19;;;-1.07;74.70
8334;BME280;4204;43.004;23.052;2024-03-23T01:41:55;93882.91;;;-1.05;75.36
8334;BME280;4204;43.004;23.052;2024-03-23T01:44:21;93875.44;;;-1.16;75.27
8334;BME280;4204;43.004;23.052;2024-03-23T01:46:46;93877.84;;;-1.15;75.40
8334;BME280;4204;43.004;23.052;2024-03-23T01:49:12;93873.97;;;-1.38;76.29
8334;BME280;4204;43.004;23.052;2024-03-23T01:51:38;93875.63;;;-1.58;77.05
8334;BME280;4204;43.004;23.052;2024-03-23T01:54:07;93873.88;;;-1.57;76.91
8334;BME280;4204;43.004;23.052;2024-03-23T01:56:34;93874.47;;;-1.44;77.15
8334;BME280;4204;43.004;23.052;2024-03-23T01:59:03;93873.09;;;-1.58;77.59
8334;BME280;4204;43.004;23.052;2024-03-23T02:01:28;93875.19;;;-1.63;77.68
8334;BME280;4204;43.004;23.052;2024-03-23T02:03:54;93873.41;;;-1.82;78.06
8334;BME280;4204;43.004;23.052;2024-03-23T02:06:19;93877.06;;;-1.65;78.08
8334;BME280;4204;43.004;23.052;2024-03-23T02:08:44;93877.34;;;-1.58;77.97
8334;BME280;4204;43.004;23.052;2024-03-23T02:11:10;93877.34;;;-1.58;77.23
8334;BME280;4204;43.004;23.052;2024-03-23T02:13:35;93868.53;;;-1.74;78.09
8334;BME280;4204;43.004;23.052;2024-03-23T02:16:01;93859.88;;;-1.71;78.15
8334;BME280;4204;43.004;23.052;2024-03-23T02:18:27;93862.16;;;-1.68;77.97
8334;BME280;4204;43.004;23.052;2024-03-23T02:20:52;93845.66;;;-1.72;77.69
8334;BME280;4204;43.004;23.052;2024-03-23T02:23:17;93863.13;;;-1.50;77.46
8334;BME280;4204;43.004;23.052;2024-03-23T02:25:43;93868.88;;;-1.48;77.15
8334;BME280;4204;43.004;23.052;2024-03-23T02:28:09;93859.72;;;-1.39;77.04
8334;BME280;4204;43.004;23.052;2024-03-23T02:30:35;93863.19;;;-1.31;76.27
8334;BME280;4204;43.004;23.052;2024-03-23T02:33:00;93860.41;;;-1.27;75.85
8334;BME280;4204;43.004;23.052;2024-03-23T02:35:26;93864.13;;;-1.22;75.30
8334;BME280;4204;43.004;23.052;2024-03-23T02:37:51;93856.41;;;-1.20;75.78
8334;BME280;4204;43.004;23.052;2024-03-23T02:40:18;93865.59;;;-1.19;75.55
8334;BME280;4204;43.004;23.052;2024-03-23T02:42:43;93844.41;;;-1.38;76.18
8334;BME280;4204;43.004;23.052;2024-03-23T02:45:09;93853.19;;;-1.42;76.02
8334;BME280;4204;43.004;23.052;2024-03-23T02:47:54;93859.22;;;-1.73;77.85
8334;BME280;4204;43.004;23.052;2024-03-23T02:50:20;93853.59;;;-1.86;78.72
8334;BME280;4204;43.004;23.052;2024-03-23T02:52:46;93852.50;;;-1.94;78.80
8334;BME280;4204;43.004;23.052;2024-03-23T02:55:12;93857.34;;;-1.81;78.93
8334;BME280;4204;43.004;23.052;2024-03-23T02:57:37;93856.31;;;-1.69;78.42
8334;BME280;4204;43.004;23.052;2024-03-23T03:00:03;93848.75;;;-1.59;78.26
8334;BME280;4204;43.004;23.052;2024-03-23T03:02:29;93851.00;;;-1.66;78.21
8334;BME280;4204;43.004;23.052;2024-03-23T03:04:54;93856.97;;;-1.67;78.65
8334;BME280;4204;43.004;23.052;2024-03-23T03:07:20;93843.00;;;-1.71;78.82
8334;BME280;4204;43.004;23.052;2024-03-23T03:09:45;93824.22;;;-1.78;78.68
8334;BME280;4204;43.004;23.052;2024-03-23T03:12:10;93851.22;;;-1.78;79.85
8334;BME280;4204;43.004;23.052;2024-03-23T03:14:36;93849.03;;;-1.93;79.73
8334;BME280;4204;43.004;23.052;2024-03-23T03:17:01;93849.59;;;-1.89;79.82
8334;BME280;4204;43.004;23.052;2024-03-23T03:19:26;93854.69;;;-1.79;79.59
8334;BME280;4204;43.004;23.052;2024-03-23T03:21:52;93845.25;;;-1.77;79.36
8334;BME280;4204;43.004;23.052;2024-03-23T03:24:18;93851.00;;;-1.66;78.67
8334;BME280;4204;43.004;23.052;2024-03-23T03:26:43;93850.59;;;-1.61;78.05
8334;BME280;4204;43.004;23.052;2024-03-23T03:29:09;93828.63;;;-1.70;78.36
8334;BME280;4204;43.004;23.052;2024-03-23T03:31:34;93853.28;;;-1.53;77.25
8334;BME280;4204;43.004;23.052;2024-03-23T03:34:00;93854.44;;;-1.67;77.59
8334;BME280;4204;43.004;23.052;2024-03-23T03:36:25;93852.19;;;-1.70;77.59
8334;BME280;4204;43.004;23.052;2024-03-23T03:38:50;93851.63;;;-1.73;78.83
8334;BME280;4204;43.004;23.052;2024-03-23T03:41:16;93850.38;;;-1.88;79.48
8334;BME280;4204;43.004;23.052;2024-03-23T03:43:41;93847.31;;;-1.92;78.92
8334;BME280;4204;43.004;23.052;2024-03-23T03:46:07;93855.59;;;-1.80;78.82
8334;BME280;4204;43.004;23.052;2024-03-23T03:48:36;93862.41;;;-1.71;78.84
8334;BME280;4204;43.004;23.052;2024-03-23T03:51:02;93862.13;;;-1.78;78.75
8334;BME280;4204;43.004;23.052;2024-03-23T03:53:27;93862.00;;;-1.76;79.06
8334;BME280;4204;43.004;23.052;2024-03-23T03:55:53;93835.72;;;-2.04;79.96
8334;BME280;4204;43.004;23.052;2024-03-23T03:58:18;93850.06;;;-2.05;79.77
8334;BME280;4204;43.004;23.052;2024-03-23T04:00:44;93841.31;;;-2.01;79.99
8334;BME280;4204;43.004;23.052;2024-03-23T04:03:09;93850.78;;;-1.93;80.05
8334;BME280;4204;43.004;23.052;2024-03-23T04:05:34;93851.25;;;-2.09;80.04
8334;BME280;4204;43.004;23.052;2024-03-23T04:08:00;93856.03;;;-2.06;80.65
8334;BME280;4204;43.004;23.052;2024-03-23T04:10:25;93847.25;;;-2.11;81.09
8334;BME280;4204;43.004;23.052;2024-03-23T04:12:52;93838.72;;;-2.20;81.30
8334;BME280;4204;43.004;23.052;2024-03-23T04:15:18;93850.19;;;-2.27;82.45
8334;BME280;4204;43.004;23.052;2024-03-23T04:17:44;93849.72;;;-2.21;81.63
8334;BME280;4204;43.004;23.052;2024-03-23T04:20:10;93854.16;;;-2.13;82.75
8334;BME280;4204;43.004;23.052;2024-03-23T04:22:40;93857.31;;;-2.21;81.47
8334;BME280;4204;43.004;23.052;2024-03-23T04:25:05;93853.31;;;-2.44;82.16
8334;BME280;4204;43.004;23.052;2024-03-23T04:27:38;93846.47;;;-2.33;81.88
8334;BME280;4204;43.004;23.052;2024-03-23T04:30:05;93846.50;;;-2.23;81.04
8334;BME280;4204;43.004;23.052;2024-03-23T04:32:50;93860.94;;;-2.14;81.49
8334;BME280;4204;43.004;23.052;2024-03-23T04:35:16;93859.00;;;-2.01;80.60
8334;BME280;4204;43.004;23.052;2024-03-23T04:37:41;93859.59;;;-2.18;80.97
8334;BME280;4204;43.004;23.052;2024-03-23T04:40:07;93866.03;;;-2.25;81.61
8334;BME280;4204;43.004;23.052;2024-03-23T04:42:33;93860.75;;;-2.22;82.34
8334;BME280;4204;43.004;23.052;2024-03-23T04:44:59;93864.00;;;-2.10;81.70
8334;BME280;4204;43.004;23.052;2024-03-23T04:47:24;93864.94;;;-2.11;81.23
8334;BME280;4204;43.004;23.052;2024-03-23T04:49:49;93869.47;;;-2.05;80.75
8334;BME280;4204;43.004;23.052;2024-03-23T04:52:16;93861.94;;;-1.96;80.94
8334;BME280;4204;43.004;23.052;2024-03-23T04:54:41;93872.75;;;-1.84;80.38
8334;BME280;4204;43.004;23.052;2024-03-23T04:57:07;93871.97;;;-1.75;79.77
8334;BME280;4204;43.004;23.052;2024-03-23T04:59:32;93884.94;;;-1.58;79.12
8334;BME280;4204;43.004;23.052;2024-03-23T05:01:58;93880.16;;;-1.52;78.79
8334;BME280;4204;43.004;23.052;2024-03-23T05:04:24;93874.84;;;-1.49;77.96
8334;BME280;4204;43.004;23.052;2024-03-23T05:06:50;93872.31;;;-1.49;78.62
8334;BME280;4204;43.004;23.052;2024-03-23T05:09:15;93864.13;;;-1.72;79.51
8334;BME280;4204;43.004;23.052;2024-03-23T05:11:42;93866.25;;;-1.77;79.71
8334;BME280;4204;43.004;23.052;2024-03-23T05:14:07;93864.25;;;-1.83;80.66
8334;BME280;4204;43.004;23.052;2024-03-23T05:16:33;93859.94;;;-1.92;81.07
8334;BME280;4204;43.004;23.052;2024-03-23T05:18:58;93867.41;;;-1.90;81.50
8334;BME280;4204;43.004;23.052;2024-03-23T05:21:24;93875.31;;;-1.74;81.97
8334;BME280;4204;43.004;23.052;2024-03-23T05:23:49;93864.53;;;-1.76;81.97
8334;BME280;4204;43.004;23.052;2024-03-23T05:26:16;93880.25;;;-1.63;81.83
8334;BME280;4204;43.004;23.052;2024-03-23T05:28:41;93873.47;;;-1.63;82.00
8334;BME280;4204;43.004;23.052;2024-03-23T05:31:07;93878.50;;;-1.72;82.94
8334;BME280;4204;43.004;23.052;2024-03-23T05:33:52;93861.91;;;-1.65;82.75
8334;BME280;4204;43.004;23.052;2024-03-23T05:36:18;93872.22;;;-1.47;82.77
8334;BME280;4204;43.004;23.052;2024-03-23T05:38:43;93868.50;;;-1.34;82.28
8334;BME280;4204;43.004;23.052;2024-03-23T05:41:09;93864.94;;;-1.21;82.55
8334;BME280;4204;43.004;23.052;2024-03-23T05:43:54;93865.47;;;-0.99;81.46
8334;BME280;4204;43.004;23.052;2024-03-23T05:46:20;93849.38;;;-0.88;81.23
8334;BME280;4204;43.004;23.052;2024-03-23T05:48:45;93871.91;;;-0.66;80.76
8334;BME280;4204;43.004;23.052;2024-03-23T05:51:11;93883.47;;;-0.53;80.41
8334;BME280;4204;43.004;23.052;2024-03-23T05:53:37;93870.00;;;-0.44;80.89
8334;BME280;4204;43.004;23.052;2024-03-23T05:56:03;93870.50;;;-0.31;80.83
8334;BME280;4204;43.004;23.052;2024-03-23T05:58:29;93865.16;;;-0.28;80.64
8334;BME280;4204;43.004;23.052;2024-03-23T06:00:59;93867.25;;;-0.14;80.71
8334;BME280;4204;43.004;23.052;2024-03-23T06:03:28;93855.09;;;-0.01;80.58
8334;BME280;4204;43.004;23.052;2024-03-23T06:05:55;93862.25;;;0.14;80.93
8334;BME280;4204;43.004;23.052;2024-03-23T06:08:21;93862.22;;;0.23;80.49
8334;BME280;4204;43.004;23.052;2024-03-23T06:10:47;93861.63;;;0.39;80.11
8334;BME280;4204;43.004;23.052;2024-03-23T06:13:13;93853.03;;;0.50;82.38
8334;BME280;4204;43.004;23.052;2024-03-23T06:15:38;93855.22;;;0.62;81.65
8334;BME280;4204;43.004;23.052;2024-03-23T06:18:04;93854.63;;;0.78;82.54
8334;BME280;4204;43.004;23.052;2024-03-23T06:20:30;93844.34;;;0.98;81.23
8334;BME280;4204;43.004;23.052;2024-03-23T06:22:56;93831.72;;;1.06;80.87
8334;BME280;4204;43.004;23.052;2024-03-23T06:25:21;93832.66;;;1.22;80.97
8334;BME280;4204;43.004;23.052;2024-03-23T06:27:47;93849.81;;;1.46;80.74
8334;BME280;4204;43.004;23.052;2024-03-23T06:30:14;93849.72;;;1.74;79.80
8334;BME280;4204;43.004;23.052;2024-03-23T06:32:39;93845.22;;;1.94;80.01
8334;BME280;4204;43.004;23.052;2024-03-23T06:35:05;93825.41;;;2.05;77.98
8334;BME280;4204;43.004;23.052;2024-03-23T06:37:35;93841.34;;;2.41;77.82
8334;BME280;4204;43.004;23.052;2024-03-23T06:40:01;93850.47;;;2.60;77.60
8334;BME280;4204;43.004;23.052;2024-03-23T06:42:26;93844.47;;;2.77;76.73
8334;BME280;4204;43.004;23.052;2024-03-23T06:44:52;93852.63;;;2.97;76.60
8334;BME280;4204;43.004;23.052;2024-03-23T06:47:17;93832.13;;;3.15;75.86
8334;BME280;4204;43.004;23.052;2024-03-23T06:49:43;93838.19;;;3.38;78.13
8334;BME280;4204;43.004;23.052;2024-03-23T06:52:08;93840.56;;;3.64;74.94
8334;BME280;4204;43.004;23.052;2024-03-23T06:54:33;93846.13;;;3.92;74.45
8334;BME280;4204;43.004;23.052;2024-03-23T06:56:59;93836.66;;;4.17;72.75
8334;BME280;4204;43.004;23.052;2024-03-23T06:59:24;93849.69;;;4.46;71.46
8334;BME280;4204;43.004;23.052;2024-03-23T07:01:50;93839.69;;;4.68;70.58
8334;BME280;4204;43.004;23.052;2024-03-23T07:04:15;93827.81;;;4.83;70.30
8334;BME280;4204;43.004;23.052;2024-03-23T07:06:44;93826.28;;;4.97;69.75
8334;BME280;4204;43.004;23.052;2024-03-23T07:09:10;93825.03;;;5.24;67.40
8334;BME280;4204;43.004;23.052;2024-03-23T07:11:36;93829.50;;;5.45;65.35
8334;BME280;4204;43.004;23.052;2024-03-23T07:14:01;93820.19;;;5.66;64.90
8334;BME280;4204;43.004;23.052;2024-03-23T07:16:28;93827.22;;;5.87;64.98
8334;BME280;4204;43.004;23.052;2024-03-23T07:18:53;93816.88;;;6.03;63.09
8334;BME280;4204;43.004;23.052;2024-03-23T07:21:19;93819.44;;;6.18;61.20
8334;BME280;4204;43.004;23.052;2024-03-23T07:23:45;93822.78;;;6.33;61.88
8334;BME280;4204;43.004;23.052;2024-03-23T07:26:10;93812.88;;;6.45;61.24
8334;BME280;4204;43.004;23.052;2024-03-23T07:28:36;93808.63;;;6.52;61.24
8334;BME280;4204;43.004;23.052;2024-03-23T07:31:07;93816.31;;;6.67;61.75
8334;BME280;4204;43.004;23.052;2024-03-23T07:33:37;93811.50;;;6.93;59.27
8334;BME280;4204;43.004;23.052;2024-03-23T07:36:03;93810.72;;;7.14;59.44
8334;BME280;4204;43.004;23.052;2024-03-23T07:38:29;93815.19;;;7.27;57.81
8334;BME280;4204;43.004;23.052;2024-03-23T07:43:33;93806.53;;;7.49;56.48
8334;BME280;4204;43.004;23.052;2024-03-23T07:45:59;93811.91;;;7.54;56.83
8334;BME280;4204;43.004;23.052;2024-03-23T07:48:24;93805.28;;;7.67;56.65
8334;BME280;4204;43.004;23.052;2024-03-23T07:53:32;93797.31;;;7.83;57.03
8334;BME280;4204;43.004;23.052;2024-03-23T07:56:00;93807.47;;;7.97;56.20
8334;BME280;4204;43.004;23.052;2024-03-23T07:58:26;93798.88;;;8.12;53.68
8334;BME280;4204;43.004;23.052;2024-03-23T08:00:53;93812.97;;;8.22;54.92
8334;BME280;4204;43.004;23.052;2024-03-23T08:03:18;93803.00;;;8.34;50.63
8334;BME280;4204;43.004;23.052;2024-03-23T08:05:44;93799.50;;;8.48;52.42
8334;BME280;4204;43.004;23.052;2024-03-23T08:08:09;93786.53;;;8.63;48.64
8334;BME280;4204;43.004;23.052;2024-03-23T08:10:36;93792.31;;;8.78;49.58
8334;BME280;4204;43.004;23.052;2024-03-23T08:13:01;93788.00;;;8.85;50.67
8334;BME280;4204;43.004;23.052;2024-03-23T08:15:27;93788.63;;;8.94;49.63
8334;BME280;4204;43.004;23.052;2024-03-23T08:17:52;93791.03;;;9.09;50.31
8334;BME280;4204;43.004;23.052;2024-03-23T08:20:17;93789.66;;;9.13;50.21
8334;BME280;4204;43.004;23.052;2024-03-23T08:22:43;93798.56;;;9.17;50.17
8334;BME280;4204;43.004;23.052;2024-03-23T08:25:08;93783.34;;;9.22;49.86
8334;BME280;4204;43.004;23.052;2024-03-23T08:27:33;93782.38;;;9.30;48.62
8334;BME280;4204;43.004;23.052;2024-03-23T08:29:59;93789.91;;;9.38;50.80
8334;BME280;4204;43.004;23.052;2024-03-23T08:32:24;93783.19;;;9.56;48.78
8334;BME280;4204;43.004;23.052;2024-03-23T08:34:50;93787.16;;;9.79;49.44
8334;BME280;4204;43.004;23.052;2024-03-23T08:37:15;93776.06;;;9.92;49.86
8334;BME280;4204;43.004;23.052;2024-03-23T08:39:43;93778.03;;;9.96;48.96
8334;BME280;4204;43.004;23.052;2024-03-23T08:42:09;93772.09;;;9.89;48.67
8334;BME280;4204;43.004;23.052;2024-03-23T08:44:34;93773.28;;;9.93;46.52
8334;BME280;4204;43.004;23.052;2024-03-23T08:47:01;93774.47;;;9.97;46.23
8334;BME280;4204;43.004;23.052;2024-03-23T08:49:26;93774.25;;;10.05;47.11
8334;BME280;4204;43.004;23.052;2024-03-23T08:51:51;93770.47;;;10.14;46.41
8334;BME280;4204;43.004;23.052;2024-03-23T08:54:17;93771.66;;;10.18;46.35
8334;BME280;4204;43.004;23.052;2024-03-23T08:56:43;93741.16;;;10.15;47.49
8334;BME280;4204;43.004;23.052;2024-03-23T08:59:08;93759.38;;;10.27;45.58
8334;BME280;4204;43.004;23.052;2024-03-23T09:01:33;93762.34;;;10.31;45.41
8334;BME280;4204;43.004;23.052;2024-03-23T09:03:59;93754.19;;;10.34;45.01
8334;BME280;4204;43.004;23.052;2024-03-23T09:06:24;93748.06;;;10.41;44.85
8334;BME280;4204;43.004;23.052;2024-03-23T09:08:49;93745.06;;;10.44;44.92
8334;BME280;4204;43.004;23.052;2024-03-23T09:11:15;93748.22;;;10.46;44.22
8334;BME280;4204;43.004;23.052;2024-03-23T09:13:40;93743.81;;;10.60;46.65
8334;BME280;4204;43.004;23.052;2024-03-23T09:16:07;93742.19;;;10.72;43.14
8334;BME280;4204;43.004;23.052;2024-03-23T09:18:35;93741.16;;;10.80;42.09
8334;BME280;4204;43.004;23.052;2024-03-23T09:21:01;93733.41;;;10.80;43.12
8334;BME280;4204;43.004;23.052;2024-03-23T09:23:26;93722.59;;;10.96;42.47
8334;BME280;4204;43.004;23.052;2024-03-23T09:25:52;93720.59;;;10.98;40.87
8334;BME280;4204;43.004;23.052;2024-03-23T09:28:17;93716.56;;;11.09;41.52
8334;BME280;4204;43.004;23.052;2024-03-23T09:30:43;93716.13;;;11.19;39.65
8334;BME280;4204;43.004;23.052;2024-03-23T09:33:12;93712.50;;;11.26;41.34
8334;BME280;4204;43.004;23.052;2024-03-23T09:35:41;93710.88;;;11.32;41.00
8334;BME280;4204;43.004;23.052;2024-03-23T09:38:06;93703.66;;;11.40;40.38
8334;BME280;4204;43.004;23.052;2024-03-23T09:40:44;93707.81;;;11.41;40.44
8334;BME280;4204;43.004;23.052;2024-03-23T09:43:10;93698.13;;;11.37;40.73
8334;BME280;4204;43.004;23.052;2024-03-23T09:45:39;93707.41;;;11.44;41.38
8334;BME280;4204;43.004;23.052;2024-03-23T09:48:05;93698.06;;;11.43;38.96
8334;BME280;4204;43.004;23.052;2024-03-23T09:50:32;93707.06;;;11.59;40.46
8334;BME280;4204;43.004;23.052;2024-03-23T09:52:57;93690.66;;;11.54;40.55
8334;BME280;4204;43.004;23.052;2024-03-23T09:55:23;93704.44;;;11.66;40.69
8334;BME280;4204;43.004;23.052;2024-03-23T09:57:49;93700.22;;;11.71;39.67
8334;BME280;4204;43.004;23.052;2024-03-23T10:00:15;93684.69;;;11.78;41.04
8334;BME280;4204;43.004;23.052;2024-03-23T10:02:41;93687.56;;;11.88;40.58
8334;BME280;4204;43.004;23.052;2024-03-23T10:05:22;93673.38;;;11.97;37.90
8334;BME280;4204;43.004;23.052;2024-03-23T10:07:51;93664.28;;;11.95;41.84
8334;BME280;4204;43.004;23.052;2024-03-23T10:10:16;93669.22;;;12.15;41.02
8334;BME280;4204;43.004;23.052;2024-03-23T10:12:46;93662.47;;;12.14;37.94
8334;BME280;4204;43.004;23.052;2024-03-23T10:15:24;93652.22;;;12.07;36.21
8334;BME280;4204;43.004;23.052;2024-03-23T10:18:19;93656.88;;;12.17;39.65
8334;BME280;4204;43.004;23.052;2024-03-23T10:21:13;93649.97;;;12.29;40.24
8334;BME280;4204;43.004;23.052;2024-03-23T10:23:43;93640.78;;;12.33;35.26
8334;BME280;4204;43.004;23.052;2024-03-23T10:28:57;93630.09;;;12.29;34.19
8334;BME280;4204;43.004;23.052;2024-03-23T10:31:30;93631.22;;;12.33;33.63
8334;BME280;4204;43.004;23.052;2024-03-23T10:33:56;93627.91;;;12.45;35.07
8334;BME280;4204;43.004;23.052;2024-03-23T10:36:24;93618.03;;;12.53;34.13
8334;BME280;4204;43.004;23.052;2024-03-23T10:38:54;93629.06;;;12.60;33.91
8334;BME280;4204;43.004;23.052;2024-03-23T10:41:43;93607.25;;;12.56;32.79
8334;BME280;4204;43.004;23.052;2024-03-23T10:44:10;93590.84;;;12.62;34.60
8334;BME280;4204;43.004;23.052;2024-03-23T10:46:36;93595.50;;;12.72;34.22
8334;BME280;4204;43.004;23.052;2024-03-23T10:49:03;93585.75;;;12.74;33.78
8334;BME280;4204;43.004;23.052;2024-03-23T10:51:29;93580.34;;;12.76;34.70
8334;BME280;4204;43.004;23.052;2024-03-23T10:54:14;93585.41;;;12.82;34.21
8334;BME280;4204;43.004;23.052;2024-03-23T10:56:40;93591.94;;;12.85;34.14
8334;BME280;4204;43.004;23.052;2024-03-23T10:59:06;93578.13;;;12.91;35.72
8334;BME280;4204;43.004;23.052;2024-03-23T11:01:33;93580.38;;;12.99;35.73
8334;BME280;4204;43.004;23.052;2024-03-23T11:03:58;93580.03;;;13.07;35.26
8334;BME280;4204;43.004;23.052;2024-03-23T11:06:37;93573.09;;;13.19;37.38
8334;BME280;4204;43.004;23.052;2024-03-23T11:09:03;93557.47;;;13.26;35.08
8334;BME280;4204;43.004;23.052;2024-03-23T11:11:29;93546.75;;;13.22;34.40
8334;BME280;4204;43.004;23.052;2024-03-23T11:13:57;93556.78;;;13.30;32.99
8334;BME280;4204;43.004;23.052;2024-03-23T11:16:26;93552.50;;;13.36;33.90
8334;BME280;4204;43.004;23.052;2024-03-23T11:21:59;93534.50;;;13.41;33.96
8334;BME280;4204;43.004;23.052;2024-03-23T11:24:25;93543.63;;;13.44;32.82
8334;BME280;4204;43.004;23.052;2024-03-23T11:26:50;93530.13;;;13.42;32.99
8334;BME280;4204;43.004;23.052;2024-03-23T11:29:17;93533.13;;;13.50;33.87
8334;BME280;4204;43.004;23.052;2024-03-23T11:31:52;93521.28;;;13.66;34.14
8334;BME280;4204;43.004;23.052;2024-03-23T11:34:19;93527.03;;;13.68;33.53
8334;BME280;4204;43.004;23.052;2024-03-23T11:36:46;93527.03;;;13.68;32.17
8334;BME280;4204;43.004;23.052;2024-03-23T11:39:18;93509.91;;;13.67;33.28
8334;BME280;4204;43.004;23.052;2024-03-23T11:44:22;93508.50;;;13.88;33.47
8334;BME280;4204;43.004;23.052;2024-03-23T11:46:48;93498.22;;;13.93;33.59
8334;BME280;4204;43.004;23.052;2024-03-23T11:49:27;93493.44;;;14.02;33.21
8334;BME280;4204;43.004;23.052;2024-03-23T11:51:54;93490.47;;;14.10;34.93
8334;BME280;4204;43.004;23.052;2024-03-23T11:54:21;93491.16;;;14.17;32.69
8334;BME280;4204;43.004;23.052;2024-03-23T11:57:08;93479.06;;;14.22;32.68
8334;BME280;4204;43.004;23.052;2024-03-23T11:59:34;93477.25;;;14.23;32.80
8334;BME280;4204;43.004;23.052;2024-03-23T12:02:00;93464.75;;;14.20;32.38
8334;BME280;4204;43.004;23.052;2024-03-23T12:04:28;93460.75;;;14.12;31.39
8334;BME280;4204;43.004;23.052;2024-03-23T12:07:16;93467.69;;;14.23;34.58
8334;BME280;4204;43.004;23.052;2024-03-23T12:09:46;93450.63;;;14.27;32.81
8334;BME280;4204;43.004;23.052;2024-03-23T12:12:16;93453.53;;;14.31;32.77
8334;BME280;4204;43.004;23.052;2024-03-23T12:14:45;93438.53;;;14.33;33.58
8334;BME280;4204;43.004;23.052;2024-03-23T12:17:12;93444.69;;;14.44;31.60
8334;BME280;4204;43.004;23.052;2024-03-23T12:19:39;93431.56;;;14.50;32.12
8334;BME280;4204;43.004;23.052;2024-03-23T12:22:05;93421.66;;;14.47;31.88
8334;BME280;4204;43.004;23.052;2024-03-23T12:24:32;93427.00;;;14.57;31.62
8334;BME280;4204;43.004;23.052;2024-03-23T12:27:04;93432.25;;;14.62;30.71
8334;BME280;4204;43.004;23.052;2024-03-23T12:29:33;93427.06;;;14.62;31.04
8334;BME280;4204;43.004;23.052;2024-03-23T12:32:00;93414.81;;;14.58;32.31
8334;BME280;4204;43.004;23.052;2024-03-23T12:34:26;93393.91;;;14.65;33.65
8334;BME280;4204;43.004;23.052;2024-03-23T12:36:51;93400.81;;;14.76;32.02
8334;BME280;4204;43.004;23.052;2024-03-23T12:39:17;93409.91;;;14.78;31.60
8334;BME280;4204;43.004;23.052;2024-03-23T12:41:43;93401.88;;;14.80;30.07
8334;BME280;4204;43.004;23.052;2024-03-23T12:44:08;93383.97;;;14.78;30.30
8334;BME280;4204;43.004;23.052;2024-03-23T12:46:37;93389.22;;;14.83;31.32
8334;BME280;4204;43.004;23.052;2024-03-23T12:49:02;93386.97;;;14.87;30.64
8334;BME280;4204;43.004;23.052;2024-03-23T12:51:28;93373.56;;;14.95;32.30
8334;BME280;4204;43.004;23.052;2024-03-23T12:53:53;93372.31;;;14.98;31.06
8334;BME280;4204;43.004;23.052;2024-03-23T12:56:19;93373.41;;;15.02;30.47
8334;BME280;4204;43.004;23.052;2024-03-23T12:58:44;93369.53;;;15.04;31.61
8334;BME280;4204;43.004;23.052;2024-03-23T13:01:10;93372.13;;;15.04;28.96
8334;BME280;4204;43.004;23.052;2024-03-23T13:03:35;93374.25;;;15.07;32.76
8334;BME280;4204;43.004;23.052;2024-03-23T13:06:01;93358.97;;;15.11;30.24
8334;BME280;4204;43.004;23.052;2024-03-23T13:08:26;93370.50;;;15.20;30.52
8334;BME280;4204;43.004;23.052;2024-03-23T13:10:52;93361.50;;;15.27;30.31
8334;BME280;4204;43.004;23.052;2024-03-23T13:13:18;93350.63;;;15.31;30.28
8334;BME280;4204;43.004;23.052;2024-03-23T13:15:52;93344.63;;;15.30;30.13
8334;BME280;4204;43.004;23.052;2024-03-23T13:18:17;93344.19;;;15.38;31.04
8334;BME280;4204;43.004;23.052;2024-03-23T13:20:43;93344.00;;;15.45;31.18
8334;BME280;4204;43.004;23.052;2024-03-23T13:23:08;93326.50;;;15.35;31.04
8334;BME280;4204;43.004;23.052;2024-03-23T13:25:34;93340.38;;;15.46;30.37
8334;BME280;4204;43.004;23.052;2024-03-23T13:27:59;93336.81;;;15.52;31.82
8334;BME280;4204;43.004;23.052;2024-03-23T13:30:26;93340.72;;;15.54;29.97
8334;BME280;4204;43.004;23.052;2024-03-23T13:32:51;93330.66;;;15.58;31.08
8334;BME280;4204;43.004;23.052;2024-03-23T13:35:17;93326.56;;;15.62;29.98
8334;BME280;4204;43.004;23.052;2024-03-23T13:37:43;93323.19;;;15.62;32.11
8334;BME280;4204;43.004;23.052;2024-03-23T13:40:09;93314.59;;;15.61;29.25
8334;BME280;4204;43.004;23.052;2024-03-23T13:42:34;93327.66;;;15.66;30.91
8334;BME280;4204;43.004;23.052;2024-03-23T13:45:00;93318.31;;;15.70;30.54
8334;BME280;4204;43.004;23.052;2024-03-23T13:47:25;93314.16;;;15.69;32.08
8334;BME280;4204;43.004;23.052;2024-03-23T13:49:51;93308.72;;;15.71;30.01
8334;BME280;4204;43.004;23.052;2024-03-23T13:52:16;93305.81;;;15.67;28.57
8334;BME280;4204;43.004;23.052;2024-03-23T13:54:43;93304.78;;;15.68;30.01
8334;BME280;4204;43.004;23.052;2024-03-23T13:57:11;93303.75;;;15.69;30.29
8334;BME280;4204;43.004;23.052;2024-03-23T13:59:37;93313.63;;;15.67;30.23
8334;BME280;4204;43.004;23.052;2024-03-23T14:02:02;93309.47;;;15.66;30.79
8334;BME280;4204;43.004;23.052;2024-03-23T14:04:29;93301.84;;;15.60;29.16
8334;BME280;4204;43.004;23.052;2024-03-23T14:06:54;93299.69;;;15.56;29.42
8334;BME280;4204;43.004;23.052;2024-03-23T14:09:20;93295.28;;;15.57;28.14
8334;BME280;4204;43.004;23.052;2024-03-23T14:11:51;93289.63;;;15.60;30.96
8334;BME280;4204;43.004;23.052;2024-03-23T14:14:18;93289.22;;;15.68;30.12
8334;BME280;4204;43.004;23.052;2024-03-23T14:16:44;93281.22;;;15.75;30.63
8334;BME280;4204;43.004;23.052;2024-03-23T14:19:09;93279.88;;;15.72;30.13